sensor_id;sensor_type;location;lat;lon;timestamp;P1;durP1;ratioP1;P2;durP2;ratioP2
47167;SDS011;32931;47.778;17.806;2023-01-10T00:01:34;5.68;;;2.72;;
47167;SDS011;32931;47.778;17.806;2023-01-10T00:04:01;8.32;;;3.10;;
47167;SDS011;32931;47.778;17.806;2023-01-10T00:06:27;7.88;;;2.55;;
47167;SDS011;32931;47.778;17.806;2023-01-10T00:08:53;7.53;;;2.60;;
47167;SDS011;32931;47.778;17.806;2023-01-10T00:11:22;6.53;;;2.33;;
47167;SDS011;32931;47.778;17.806;2023-01-10T00:14:06;4.65;;;2.42;;
47167;SDS011;32931;47.778;17.806;2023-01-10T00:16:33;11.85;;;2.50;;
47167;SDS011;32931;47.778;17.806;2023-01-10T00:19:01;5.60;;;2.25;;
47167;SDS011;32931;47.778;17.806;2023-01-10T00:21:27;8.13;;;1.98;;
47167;SDS011;32931;47.778;17.806;2023-01-10T00:23:55;4.50;;;1.90;;
47167;SDS011;32931;47.778;17.806;2023-01-10T00:26:33;9.48;;;1.90;;
47167;SDS011;32931;47.778;17.806;2023-01-10T00:28:59;6.28;;;1.90;;
47167;SDS011;32931;47.778;17.806;2023-01-10T00:31:25;6.20;;;2.08;;
47167;SDS011;32931;47.778;17.806;2023-01-10T00:33:51;4.30;;;1.88;;
47167;SDS011;32931;47.778;17.806;2023-01-10T00:36:17;3.15;;;2.08;;
47167;SDS011;32931;47.778;17.806;2023-01-10T00:38:43;4.18;;;1.95;;
47167;SDS011;32931;47.778;17.806;2023-01-10T00:41:09;2.60;;;1.85;;
47167;SDS011;32931;47.778;17.806;2023-01-10T00:43:55;6.90;;;1.65;;
47167;SDS011;32931;47.778;17.806;2023-01-10T00:46:21;4.72;;;2.20;;
47167;SDS011;32931;47.778;17.806;2023-01-10T00:48:48;4.78;;;1.85;;
47167;SDS011;32931;47.778;17.806;2023-01-10T00:51:14;3.50;;;2.00;;
47167;SDS011;32931;47.778;17.806;2023-01-10T00:53:41;5.53;;;2.45;;
47167;SDS011;32931;47.778;17.806;2023-01-10T00:56:07;15.43;;;3.13;;
47167;SDS011;32931;47.778;17.806;2023-01-10T00:58:33;7.93;;;2.75;;
47167;SDS011;32931;47.778;17.806;2023-01-10T01:00:59;6.22;;;2.88;;
47167;SDS011;32931;47.778;17.806;2023-01-10T01:03:25;6.88;;;2.70;;
47167;SDS011;32931;47.778;17.806;2023-01-10T01:05:51;14.80;;;2.53;;
47167;SDS011;32931;47.778;17.806;2023-01-10T01:08:18;4.40;;;2.22;;
47167;SDS011;32931;47.778;17.806;2023-01-10T01:10:44;5.38;;;2.42;;
47167;SDS011;32931;47.778;17.806;2023-01-10T01:13:12;4.40;;;2.10;;
47167;SDS011;32931;47.778;17.806;2023-01-10T01:15:40;6.20;;;2.20;;
47167;SDS011;32931;47.778;17.806;2023-01-10T01:18:06;9.23;;;2.42;;
47167;SDS011;32931;47.778;17.806;2023-01-10T01:20:33;5.07;;;2.33;;
47167;SDS011;32931;47.778;17.806;2023-01-10T01:22:59;7.93;;;1.73;;
47167;SDS011;32931;47.778;17.806;2023-01-10T01:25:26;5.40;;;1.83;;
47167;SDS011;32931;47.778;17.806;2023-01-10T01:27:52;4.25;;;1.60;;
47167;SDS011;32931;47.778;17.806;2023-01-10T01:30:18;4.32;;;1.27;;
47167;SDS011;32931;47.778;17.806;2023-01-10T01:32:44;5.88;;;1.20;;
47167;SDS011;32931;47.778;17.806;2023-01-10T01:35:11;5.07;;;1.23;;
47167;SDS011;32931;47.778;17.806;2023-01-10T01:37:40;10.02;;;1.30;;
47167;SDS011;32931;47.778;17.806;2023-01-10T01:40:08;4.65;;;1.05;;
47167;SDS011;32931;47.778;17.806;2023-01-10T01:42:42;1.88;;;0.75;;
47167;SDS011;32931;47.778;17.806;2023-01-10T01:45:24;1.80;;;0.80;;
47167;SDS011;32931;47.778;17.806;2023-01-10T01:50:58;2.28;;;0.50;;
47167;SDS011;32931;47.778;17.806;2023-01-10T01:56:10;11.40;;;0.70;;
47167;SDS011;32931;47.778;17.806;2023-01-10T01:58:43;5.57;;;0.93;;
47167;SDS011;32931;47.778;17.806;2023-01-10T02:01:12;1.65;;;0.70;;
47167;SDS011;32931;47.778;17.806;2023-01-10T02:03:40;0.80;;;0.60;;
47167;SDS011;32931;47.778;17.806;2023-01-10T02:06:09;6.28;;;0.93;;
47167;SDS011;32931;47.778;17.806;2023-01-10T02:08:37;1.77;;;0.90;;
47167;SDS011;32931;47.778;17.806;2023-01-10T02:11:09;5.05;;;1.10;;
47167;SDS011;32931;47.778;17.806;2023-01-10T02:13:39;3.28;;;1.10;;
47167;SDS011;32931;47.778;17.806;2023-01-10T02:16:07;9.55;;;1.13;;
47167;SDS011;32931;47.778;17.806;2023-01-10T02:18:34;2.60;;;1.13;;
47167;SDS011;32931;47.778;17.806;2023-01-10T02:26:18;10.43;;;0.98;;
47167;SDS011;32931;47.778;17.806;2023-01-10T02:37:31;7.88;;;1.27;;
47167;SDS011;32931;47.778;17.806;2023-01-10T02:45:35;12.70;;;1.70;;
47167;SDS011;32931;47.778;17.806;2023-01-10T02:48:10;12.18;;;1.75;;
47167;SDS011;32931;47.778;17.806;2023-01-10T02:55:58;17.20;;;1.70;;
47167;SDS011;32931;47.778;17.806;2023-01-10T03:01:26;6.47;;;1.80;;
47167;SDS011;32931;47.778;17.806;2023-01-10T03:04:29;7.72;;;1.60;;
47167;SDS011;32931;47.778;17.806;2023-01-10T03:12:30;15.25;;;2.08;;
47167;SDS011;32931;47.778;17.806;2023-01-10T03:15:05;11.07;;;1.67;;
47167;SDS011;32931;47.778;17.806;2023-01-10T03:17:32;6.40;;;1.40;;
47167;SDS011;32931;47.778;17.806;2023-01-10T03:20:01;14.80;;;1.75;;
47167;SDS011;32931;47.778;17.806;2023-01-10T03:22:30;6.18;;;1.73;;
47167;SDS011;32931;47.778;17.806;2023-01-10T03:25:00;10.13;;;2.17;;
47167;SDS011;32931;47.778;17.806;2023-01-10T03:28:18;4.70;;;1.90;;
47167;SDS011;32931;47.778;17.806;2023-01-10T03:33:05;5.88;;;1.90;;
47167;SDS011;32931;47.778;17.806;2023-01-10T03:38:40;9.45;;;1.90;;
47167;SDS011;32931;47.778;17.806;2023-01-10T03:47:41;10.52;;;1.33;;
47167;SDS011;32931;47.778;17.806;2023-01-10T03:49:48;5.47;;;1.60;;
47167;SDS011;32931;47.778;17.806;2023-01-10T03:52:18;9.45;;;1.58;;
47167;SDS011;32931;47.778;17.806;2023-01-10T03:54:46;6.78;;;1.80;;
47167;SDS011;32931;47.778;17.806;2023-01-10T03:57:22;6.32;;;1.45;;
47167;SDS011;32931;47.778;17.806;2023-01-10T03:59:50;17.60;;;1.88;;
47167;SDS011;32931;47.778;17.806;2023-01-10T04:02:18;1.50;;;1.00;;
47167;SDS011;32931;47.778;17.806;2023-01-10T04:04:45;5.70;;;1.30;;
47167;SDS011;32931;47.778;17.806;2023-01-10T04:07:11;20.27;;;1.80;;
47167;SDS011;32931;47.778;17.806;2023-01-10T04:09:37;10.88;;;1.50;;
47167;SDS011;32931;47.778;17.806;2023-01-10T04:12:04;6.10;;;1.20;;
47167;SDS011;32931;47.778;17.806;2023-01-10T04:14:30;23.80;;;1.50;;
47167;SDS011;32931;47.778;17.806;2023-01-10T04:16:57;6.22;;;1.30;;
47167;SDS011;32931;47.778;17.806;2023-01-10T04:19:24;11.35;;;1.35;;
47167;SDS011;32931;47.778;17.806;2023-01-10T04:21:50;3.33;;;1.50;;
47167;SDS011;32931;47.778;17.806;2023-01-10T04:24:17;4.70;;;1.83;;
47167;SDS011;32931;47.778;17.806;2023-01-10T04:26:43;4.50;;;1.83;;
47167;SDS011;32931;47.778;17.806;2023-01-10T04:29:09;5.35;;;2.30;;
47167;SDS011;32931;47.778;17.806;2023-01-10T04:31:35;12.57;;;1.92;;
47167;SDS011;32931;47.778;17.806;2023-01-10T04:34:02;9.38;;;1.90;;
47167;SDS011;32931;47.778;17.806;2023-01-10T04:36:28;6.57;;;2.00;;
47167;SDS011;32931;47.778;17.806;2023-01-10T04:38:54;5.55;;;2.20;;
47167;SDS011;32931;47.778;17.806;2023-01-10T04:41:20;6.15;;;2.03;;
47167;SDS011;32931;47.778;17.806;2023-01-10T04:43:46;4.40;;;2.20;;
47167;SDS011;32931;47.778;17.806;2023-01-10T04:46:14;4.47;;;2.20;;
47167;SDS011;32931;47.778;17.806;2023-01-10T04:48:40;5.75;;;2.03;;
47167;SDS011;32931;47.778;17.806;2023-01-10T04:51:07;5.70;;;2.00;;
47167;SDS011;32931;47.778;17.806;2023-01-10T04:53:33;7.50;;;1.90;;
47167;SDS011;32931;47.778;17.806;2023-01-10T04:56:02;13.63;;;1.92;;
47167;SDS011;32931;47.778;17.806;2023-01-10T04:58:34;3.67;;;1.85;;
47167;SDS011;32931;47.778;17.806;2023-01-10T05:01:12;11.48;;;2.05;;
47167;SDS011;32931;47.778;17.806;2023-01-10T05:03:40;14.35;;;2.35;;
47167;SDS011;32931;47.778;17.806;2023-01-10T05:06:06;6.47;;;2.38;;
47167;SDS011;32931;47.778;17.806;2023-01-10T05:08:33;9.50;;;1.95;;
47167;SDS011;32931;47.778;17.806;2023-01-10T05:11:00;4.60;;;1.90;;
47167;SDS011;32931;47.778;17.806;2023-01-10T05:13:26;4.03;;;1.77;;
47167;SDS011;32931;47.778;17.806;2023-01-10T05:15:53;4.57;;;1.75;;
47167;SDS011;32931;47.778;17.806;2023-01-10T05:18:26;33.45;;;2.63;;
47167;SDS011;32931;47.778;17.806;2023-01-10T05:21:00;4.53;;;1.75;;
47167;SDS011;32931;47.778;17.806;2023-01-10T05:23:27;6.30;;;2.05;;
47167;SDS011;32931;47.778;17.806;2023-01-10T05:25:54;5.00;;;1.50;;
47167;SDS011;32931;47.778;17.806;2023-01-10T05:28:20;4.40;;;1.35;;
47167;SDS011;32931;47.778;17.806;2023-01-10T05:30:47;5.45;;;1.65;;
47167;SDS011;32931;47.778;17.806;2023-01-10T05:33:13;6.55;;;2.25;;
47167;SDS011;32931;47.778;17.806;2023-01-10T05:35:39;4.18;;;2.10;;
47167;SDS011;32931;47.778;17.806;2023-01-10T05:38:05;3.05;;;1.88;;
47167;SDS011;32931;47.778;17.806;2023-01-10T05:40:31;4.88;;;1.60;;
47167;SDS011;32931;47.778;17.806;2023-01-10T05:42:58;2.85;;;1.65;;
47167;SDS011;32931;47.778;17.806;2023-01-10T05:45:24;5.38;;;1.60;;
47167;SDS011;32931;47.778;17.806;2023-01-10T05:47:50;2.47;;;1.40;;
47167;SDS011;32931;47.778;17.806;2023-01-10T05:50:16;5.38;;;1.60;;
47167;SDS011;32931;47.778;17.806;2023-01-10T05:52:42;2.33;;;1.60;;
47167;SDS011;32931;47.778;17.806;2023-01-10T05:55:08;2.00;;;1.20;;
47167;SDS011;32931;47.778;17.806;2023-01-10T05:57:34;1.95;;;1.23;;
47167;SDS011;32931;47.778;17.806;2023-01-10T06:00:01;2.65;;;1.40;;
47167;SDS011;32931;47.778;17.806;2023-01-10T06:02:28;2.70;;;1.38;;
47167;SDS011;32931;47.778;17.806;2023-01-10T06:04:54;1.98;;;1.30;;
47167;SDS011;32931;47.778;17.806;2023-01-10T06:07:21;2.53;;;1.60;;
47167;SDS011;32931;47.778;17.806;2023-01-10T06:09:48;3.90;;;1.20;;
47167;SDS011;32931;47.778;17.806;2023-01-10T06:12:16;1.98;;;1.25;;
47167;SDS011;32931;47.778;17.806;2023-01-10T06:14:43;2.95;;;1.25;;
47167;SDS011;32931;47.778;17.806;2023-01-10T06:17:10;1.83;;;1.00;;
47167;SDS011;32931;47.778;17.806;2023-01-10T06:19:36;5.60;;;1.10;;
47167;SDS011;32931;47.778;17.806;2023-01-10T06:22:02;1.92;;;0.90;;
47167;SDS011;32931;47.778;17.806;2023-01-10T06:24:29;2.40;;;1.00;;
47167;SDS011;32931;47.778;17.806;2023-01-10T06:26:55;2.00;;;0.80;;
47167;SDS011;32931;47.778;17.806;2023-01-10T06:29:21;1.83;;;1.15;;
47167;SDS011;32931;47.778;17.806;2023-01-10T06:31:47;3.17;;;1.70;;
47167;SDS011;32931;47.778;17.806;2023-01-10T06:34:13;6.20;;;2.40;;
47167;SDS011;32931;47.778;17.806;2023-01-10T06:36:39;6.53;;;3.20;;
47167;SDS011;32931;47.778;17.806;2023-01-10T06:39:05;11.35;;;4.28;;
47167;SDS011;32931;47.778;17.806;2023-01-10T06:41:31;9.40;;;5.53;;
47167;SDS011;32931;47.778;17.806;2023-01-10T06:43:58;13.40;;;5.88;;
47167;SDS011;32931;47.778;17.806;2023-01-10T06:46:24;8.57;;;5.90;;
47167;SDS011;32931;47.778;17.806;2023-01-10T06:48:50;14.07;;;6.50;;
47167;SDS011;32931;47.778;17.806;2023-01-10T06:51:16;10.32;;;7.38;;
47167;SDS011;32931;47.778;17.806;2023-01-10T06:53:42;12.48;;;7.95;;
47167;SDS011;32931;47.778;17.806;2023-01-10T06:56:08;26.13;;;8.27;;
47167;SDS011;32931;47.778;17.806;2023-01-10T06:58:36;12.52;;;8.35;;
47167;SDS011;32931;47.778;17.806;2023-01-10T07:01:16;12.07;;;7.70;;
47167;SDS011;32931;47.778;17.806;2023-01-10T07:03:44;17.30;;;8.38;;
47167;SDS011;32931;47.778;17.806;2023-01-10T07:06:10;12.75;;;7.53;;
47167;SDS011;32931;47.778;17.806;2023-01-10T07:08:41;12.07;;;7.30;;
47167;SDS011;32931;47.778;17.806;2023-01-10T07:11:10;18.17;;;7.20;;
47167;SDS011;32931;47.778;17.806;2023-01-10T07:13:37;10.35;;;6.05;;
47167;SDS011;32931;47.778;17.806;2023-01-10T07:16:09;26.25;;;6.50;;
47167;SDS011;32931;47.778;17.806;2023-01-10T07:18:37;8.85;;;5.63;;
47167;SDS011;32931;47.778;17.806;2023-01-10T07:21:05;10.93;;;5.00;;
47167;SDS011;32931;47.778;17.806;2023-01-10T07:23:31;12.15;;;5.70;;
47167;SDS011;32931;47.778;17.806;2023-01-10T07:26:01;11.57;;;5.85;;
47167;SDS011;32931;47.778;17.806;2023-01-10T07:28:31;12.02;;;5.13;;
47167;SDS011;32931;47.778;17.806;2023-01-10T07:31:01;11.15;;;4.63;;
47167;SDS011;32931;47.778;17.806;2023-01-10T07:33:30;8.23;;;3.95;;
47167;SDS011;32931;47.778;17.806;2023-01-10T07:35:56;27.77;;;4.65;;
47167;SDS011;32931;47.778;17.806;2023-01-10T07:38:24;7.40;;;3.70;;
47167;SDS011;32931;47.778;17.806;2023-01-10T07:40:50;8.35;;;3.78;;
47167;SDS011;32931;47.778;17.806;2023-01-10T07:43:17;8.27;;;4.43;;
47167;SDS011;32931;47.778;17.806;2023-01-10T07:45:43;8.10;;;3.45;;
47167;SDS011;32931;47.778;17.806;2023-01-10T07:48:09;7.20;;;3.70;;
47167;SDS011;32931;47.778;17.806;2023-01-10T07:50:36;9.60;;;3.88;;
47167;SDS011;32931;47.778;17.806;2023-01-10T07:53:04;7.38;;;3.63;;
47167;SDS011;32931;47.778;17.806;2023-01-10T07:55:32;5.70;;;3.25;;
47167;SDS011;32931;47.778;17.806;2023-01-10T07:58:00;7.07;;;3.20;;
47167;SDS011;32931;47.778;17.806;2023-01-10T08:00:27;7.03;;;3.05;;
47167;SDS011;32931;47.778;17.806;2023-01-10T08:02:53;13.45;;;2.95;;
47167;SDS011;32931;47.778;17.806;2023-01-10T08:05:20;4.65;;;2.63;;
47167;SDS011;32931;47.778;17.806;2023-01-10T08:07:47;8.07;;;2.72;;
47167;SDS011;32931;47.778;17.806;2023-01-10T08:10:14;6.78;;;2.33;;
47167;SDS011;32931;47.778;17.806;2023-01-10T08:12:40;11.30;;;2.38;;
47167;SDS011;32931;47.778;17.806;2023-01-10T08:15:06;9.80;;;1.95;;
47167;SDS011;32931;47.778;17.806;2023-01-10T08:17:33;11.35;;;2.50;;
47167;SDS011;32931;47.778;17.806;2023-01-10T08:20:00;5.57;;;2.13;;
47167;SDS011;32931;47.778;17.806;2023-01-10T08:22:27;10.77;;;3.40;;
47167;SDS011;32931;47.778;17.806;2023-01-10T08:24:53;6.72;;;3.42;;
47167;SDS011;32931;47.778;17.806;2023-01-10T08:27:19;7.93;;;4.20;;
47167;SDS011;32931;47.778;17.806;2023-01-10T08:29:45;7.05;;;4.28;;
47167;SDS011;32931;47.778;17.806;2023-01-10T08:32:11;11.55;;;5.68;;
47167;SDS011;32931;47.778;17.806;2023-01-10T08:34:37;16.10;;;6.00;;
47167;SDS011;32931;47.778;17.806;2023-01-10T08:37:04;10.95;;;6.47;;
47167;SDS011;32931;47.778;17.806;2023-01-10T08:39:30;17.10;;;7.90;;
47167;SDS011;32931;47.778;17.806;2023-01-10T08:41:56;10.80;;;7.70;;
47167;SDS011;32931;47.778;17.806;2023-01-10T08:44:22;14.40;;;8.73;;
47167;SDS011;32931;47.778;17.806;2023-01-10T08:46:48;21.95;;;8.70;;
47167;SDS011;32931;47.778;17.806;2023-01-10T08:49:14;13.90;;;7.18;;
47167;SDS011;32931;47.778;17.806;2023-01-10T08:51:41;16.48;;;9.18;;
47167;SDS011;32931;47.778;17.806;2023-01-10T08:54:07;25.00;;;8.40;;
47167;SDS011;32931;47.778;17.806;2023-01-10T08:56:33;14.63;;;7.70;;
47167;SDS011;32931;47.778;17.806;2023-01-10T08:59:01;14.75;;;7.88;;
47167;SDS011;32931;47.778;17.806;2023-01-10T09:01:28;16.77;;;8.63;;
47167;SDS011;32931;47.778;17.806;2023-01-10T09:03:54;17.98;;;8.68;;
47167;SDS011;32931;47.778;17.806;2023-01-10T09:06:20;16.90;;;9.80;;
47167;SDS011;32931;47.778;17.806;2023-01-10T09:08:46;17.98;;;10.02;;
47167;SDS011;32931;47.778;17.806;2023-01-10T09:11:12;14.80;;;10.20;;
47167;SDS011;32931;47.778;17.806;2023-01-10T09:13:38;20.67;;;10.65;;
47167;SDS011;32931;47.778;17.806;2023-01-10T09:16:05;16.95;;;10.52;;
47167;SDS011;32931;47.778;17.806;2023-01-10T09:18:31;17.35;;;10.13;;
47167;SDS011;32931;47.778;17.806;2023-01-10T09:20:58;17.00;;;10.48;;
47167;SDS011;32931;47.778;17.806;2023-01-10T09:23:25;13.98;;;9.02;;
47167;SDS011;32931;47.778;17.806;2023-01-10T09:25:52;16.25;;;10.20;;
47167;SDS011;32931;47.778;17.806;2023-01-10T09:28:20;16.23;;;10.35;;
47167;SDS011;32931;47.778;17.806;2023-01-10T09:30:48;22.92;;;11.68;;
47167;SDS011;32931;47.778;17.806;2023-01-10T09:33:15;19.92;;;10.68;;
47167;SDS011;32931;47.778;17.806;2023-01-10T09:35:43;18.60;;;10.02;;
47167;SDS011;32931;47.778;17.806;2023-01-10T09:38:10;15.43;;;10.15;;
47167;SDS011;32931;47.778;17.806;2023-01-10T09:40:42;21.17;;;10.07;;
47167;SDS011;32931;47.778;17.806;2023-01-10T09:48:23;14.10;;;8.90;;
47167;SDS011;32931;47.778;17.806;2023-01-10T09:51:13;19.30;;;9.30;;
47167;SDS011;32931;47.778;17.806;2023-01-10T09:53:41;17.45;;;9.70;;
47167;SDS011;32931;47.778;17.806;2023-01-10T09:56:09;13.95;;;8.63;;
47167;SDS011;32931;47.778;17.806;2023-01-10T09:58:39;15.27;;;9.25;;
47167;SDS011;32931;47.778;17.806;2023-01-10T10:01:10;21.98;;;9.65;;
47167;SDS011;32931;47.778;17.806;2023-01-10T10:06:19;16.38;;;9.38;;
47167;SDS011;32931;47.778;17.806;2023-01-10T10:08:47;21.52;;;10.75;;
47167;SDS011;32931;47.778;17.806;2023-01-10T10:16:49;23.98;;;10.68;;
47167;SDS011;32931;47.778;17.806;2023-01-10T10:25:07;17.70;;;9.95;;
47167;SDS011;32931;47.778;17.806;2023-01-10T10:36:38;16.60;;;10.70;;
47167;SDS011;32931;47.778;17.806;2023-01-10T10:39:13;16.17;;;10.68;;
47167;SDS011;32931;47.778;17.806;2023-01-10T10:41:43;17.08;;;11.15;;
47167;SDS011;32931;47.778;17.806;2023-01-10T10:46:58;15.43;;;10.70;;
47167;SDS011;32931;47.778;17.806;2023-01-10T10:51:51;25.45;;;12.82;;
47167;SDS011;32931;47.778;17.806;2023-01-10T10:54:18;17.70;;;10.77;;
47167;SDS011;32931;47.778;17.806;2023-01-10T10:56:44;23.73;;;11.65;;
47167;SDS011;32931;47.778;17.806;2023-01-10T10:59:20;21.00;;;10.77;;
47167;SDS011;32931;47.778;17.806;2023-01-10T11:01:47;16.58;;;10.32;;
47167;SDS011;32931;47.778;17.806;2023-01-10T11:04:16;16.70;;;9.93;;
47167;SDS011;32931;47.778;17.806;2023-01-10T11:06:45;18.33;;;10.88;;
47167;SDS011;32931;47.778;17.806;2023-01-10T11:09:15;17.38;;;10.48;;
47167;SDS011;32931;47.778;17.806;2023-01-10T11:11:51;23.60;;;11.23;;
47167;SDS011;32931;47.778;17.806;2023-01-10T11:17:16;22.42;;;12.15;;
47167;SDS011;32931;47.778;17.806;2023-01-10T11:22:24;19.67;;;11.73;;
47167;SDS011;32931;47.778;17.806;2023-01-10T11:24:54;18.08;;;11.88;;
47167;SDS011;32931;47.778;17.806;2023-01-10T11:27:24;22.80;;;13.98;;
47167;SDS011;32931;47.778;17.806;2023-01-10T11:30:00;18.98;;;12.52;;
47167;SDS011;32931;47.778;17.806;2023-01-10T11:32:33;19.00;;;11.77;;
47167;SDS011;32931;47.778;17.806;2023-01-10T11:35:14;18.95;;;11.90;;
47167;SDS011;32931;47.778;17.806;2023-01-10T11:38:08;18.67;;;12.13;;
47167;SDS011;32931;47.778;17.806;2023-01-10T11:41:26;18.02;;;12.23;;
47167;SDS011;32931;47.778;17.806;2023-01-10T11:43:41;17.98;;;12.48;;
47167;SDS011;32931;47.778;17.806;2023-01-10T11:48:51;17.67;;;12.73;;
47167;SDS011;32931;47.778;17.806;2023-01-10T11:51:27;21.75;;;14.15;;
47167;SDS011;32931;47.778;17.806;2023-01-10T11:54:18;21.23;;;13.38;;
47167;SDS011;32931;47.778;17.806;2023-01-10T11:56:55;22.92;;;12.50;;
47167;SDS011;32931;47.778;17.806;2023-01-10T12:00:01;20.05;;;11.93;;
47167;SDS011;32931;47.778;17.806;2023-01-10T12:02:33;20.85;;;14.23;;
47167;SDS011;32931;47.778;17.806;2023-01-10T12:05:03;22.55;;;13.30;;
47167;SDS011;32931;47.778;17.806;2023-01-10T12:08:20;19.92;;;13.48;;
47167;SDS011;32931;47.778;17.806;2023-01-10T12:10:31;25.67;;;15.20;;
47167;SDS011;32931;47.778;17.806;2023-01-10T12:13:01;17.30;;;12.63;;
47167;SDS011;32931;47.778;17.806;2023-01-10T12:15:39;25.52;;;13.13;;
47167;SDS011;32931;47.778;17.806;2023-01-10T12:18:05;18.95;;;13.85;;
47167;SDS011;32931;47.778;17.806;2023-01-10T12:20:34;21.05;;;13.32;;
47167;SDS011;32931;47.778;17.806;2023-01-10T12:23:12;18.08;;;12.88;;
47167;SDS011;32931;47.778;17.806;2023-01-10T12:25:43;18.48;;;12.43;;
47167;SDS011;32931;47.778;17.806;2023-01-10T12:28:45;21.27;;;13.57;;
47167;SDS011;32931;47.778;17.806;2023-01-10T12:31:03;18.38;;;12.63;;
47167;SDS011;32931;47.778;17.806;2023-01-10T12:33:38;20.05;;;11.98;;
47167;SDS011;32931;47.778;17.806;2023-01-10T12:38:47;20.02;;;11.95;;
47167;SDS011;32931;47.778;17.806;2023-01-10T12:44:44;19.23;;;10.85;;
47167;SDS011;32931;47.778;17.806;2023-01-10T12:50:02;17.88;;;9.60;;
47167;SDS011;32931;47.778;17.806;2023-01-10T12:55:35;10.85;;;8.13;;
47167;SDS011;32931;47.778;17.806;2023-01-10T12:58:18;15.60;;;9.02;;
47167;SDS011;32931;47.778;17.806;2023-01-10T13:01:07;12.07;;;8.40;;
47167;SDS011;32931;47.778;17.806;2023-01-10T13:03:39;10.97;;;8.13;;
47167;SDS011;32931;47.778;17.806;2023-01-10T13:06:09;10.82;;;8.45;;
47167;SDS011;32931;47.778;17.806;2023-01-10T13:08:57;12.98;;;7.80;;
47167;SDS011;32931;47.778;17.806;2023-01-10T13:11:27;12.60;;;8.38;;
47167;SDS011;32931;47.778;17.806;2023-01-10T13:13:59;12.13;;;8.35;;
47167;SDS011;32931;47.778;17.806;2023-01-10T13:21:31;15.27;;;8.20;;
47167;SDS011;32931;47.778;17.806;2023-01-10T13:24:00;11.43;;;7.10;;
47167;SDS011;32931;47.778;17.806;2023-01-10T13:29:23;10.57;;;7.40;;
47167;SDS011;32931;47.778;17.806;2023-01-10T13:31:51;10.68;;;7.18;;
47167;SDS011;32931;47.778;17.806;2023-01-10T13:36:54;9.60;;;6.50;;
47167;SDS011;32931;47.778;17.806;2023-01-10T13:52:50;12.07;;;5.78;;
47167;SDS011;32931;47.778;17.806;2023-01-10T13:55:21;10.75;;;5.90;;
47167;SDS011;32931;47.778;17.806;2023-01-10T13:57:55;10.13;;;5.75;;
47167;SDS011;32931;47.778;17.806;2023-01-10T14:00:44;10.40;;;6.22;;
47167;SDS011;32931;47.778;17.806;2023-01-10T14:09:02;6.45;;;4.97;;
47167;SDS011;32931;47.778;17.806;2023-01-10T14:16:57;6.55;;;3.97;;
47167;SDS011;32931;47.778;17.806;2023-01-10T14:19:35;8.95;;;4.22;;
47167;SDS011;32931;47.778;17.806;2023-01-10T14:22:02;8.43;;;4.32;;
47167;SDS011;32931;47.778;17.806;2023-01-10T14:24:36;10.20;;;4.05;;
47167;SDS011;32931;47.778;17.806;2023-01-10T14:27:11;7.15;;;3.88;;
47167;SDS011;32931;47.778;17.806;2023-01-10T14:34:55;9.27;;;4.43;;
47167;SDS011;32931;47.778;17.806;2023-01-10T14:37:38;9.63;;;4.07;;
47167;SDS011;32931;47.778;17.806;2023-01-10T14:42:55;6.65;;;4.00;;
47167;SDS011;32931;47.778;17.806;2023-01-10T14:45:33;8.55;;;4.20;;
47167;SDS011;32931;47.778;17.806;2023-01-10T14:48:22;6.95;;;3.63;;
47167;SDS011;32931;47.778;17.806;2023-01-10T14:50:52;7.25;;;4.15;;
47167;SDS011;32931;47.778;17.806;2023-01-10T14:53:40;8.55;;;3.80;;
47167;SDS011;32931;47.778;17.806;2023-01-10T15:02:14;5.63;;;3.92;;
47167;SDS011;32931;47.778;17.806;2023-01-10T15:07:34;5.60;;;3.75;;
47167;SDS011;32931;47.778;17.806;2023-01-10T15:10:02;7.53;;;4.00;;
47167;SDS011;32931;47.778;17.806;2023-01-10T15:12:52;10.48;;;4.20;;
47167;SDS011;32931;47.778;17.806;2023-01-10T15:15:23;9.05;;;4.20;;
47167;SDS011;32931;47.778;17.806;2023-01-10T15:17:57;9.88;;;4.50;;
47167;SDS011;32931;47.778;17.806;2023-01-10T15:20:24;7.45;;;4.18;;
47167;SDS011;32931;47.778;17.806;2023-01-10T15:22:56;9.05;;;4.38;;
47167;SDS011;32931;47.778;17.806;2023-01-10T15:27:57;7.05;;;4.10;;
47167;SDS011;32931;47.778;17.806;2023-01-10T15:30:25;6.00;;;4.30;;
47167;SDS011;32931;47.778;17.806;2023-01-10T15:32:55;7.80;;;4.10;;
47167;SDS011;32931;47.778;17.806;2023-01-10T15:35:27;7.82;;;4.00;;
47167;SDS011;32931;47.778;17.806;2023-01-10T15:37:56;9.93;;;4.78;;
47167;SDS011;32931;47.778;17.806;2023-01-10T15:40:41;9.38;;;4.40;;
47167;SDS011;32931;47.778;17.806;2023-01-10T15:45:44;7.65;;;3.97;;
47167;SDS011;32931;47.778;17.806;2023-01-10T15:48:24;6.78;;;3.70;;
47167;SDS011;32931;47.778;17.806;2023-01-10T15:51:14;7.85;;;4.53;;
47167;SDS011;32931;47.778;17.806;2023-01-10T15:59:31;8.10;;;4.18;;
47167;SDS011;32931;47.778;17.806;2023-01-10T16:04:43;7.50;;;3.67;;
47167;SDS011;32931;47.778;17.806;2023-01-10T16:07:15;6.93;;;3.75;;
47167;SDS011;32931;47.778;17.806;2023-01-10T16:09:48;8.85;;;4.13;;
47167;SDS011;32931;47.778;17.806;2023-01-10T16:12:25;6.68;;;3.80;;
47167;SDS011;32931;47.778;17.806;2023-01-10T16:15:21;9.68;;;4.47;;
47167;SDS011;32931;47.778;17.806;2023-01-10T16:17:52;9.25;;;4.30;;
47167;SDS011;32931;47.778;17.806;2023-01-10T16:20:29;8.07;;;4.82;;
47167;SDS011;32931;47.778;17.806;2023-01-10T16:22:58;9.57;;;4.00;;
47167;SDS011;32931;47.778;17.806;2023-01-10T16:25:47;9.90;;;3.80;;
47167;SDS011;32931;47.778;17.806;2023-01-10T16:28:15;9.15;;;3.95;;
47167;SDS011;32931;47.778;17.806;2023-01-10T16:30:43;8.20;;;3.92;;
47167;SDS011;32931;47.778;17.806;2023-01-10T16:33:12;8.02;;;3.80;;
47167;SDS011;32931;47.778;17.806;2023-01-10T16:35:43;5.88;;;3.75;;
47167;SDS011;32931;47.778;17.806;2023-01-10T16:38:10;7.35;;;3.83;;
47167;SDS011;32931;47.778;17.806;2023-01-10T16:40:41;5.70;;;3.63;;
47167;SDS011;32931;47.778;17.806;2023-01-10T16:43:11;10.30;;;3.70;;
47167;SDS011;32931;47.778;17.806;2023-01-10T16:45:52;7.32;;;3.47;;
47167;SDS011;32931;47.778;17.806;2023-01-10T16:48:27;7.75;;;3.45;;
47167;SDS011;32931;47.778;17.806;2023-01-10T16:50:54;4.35;;;3.17;;
47167;SDS011;32931;47.778;17.806;2023-01-10T16:53:28;4.88;;;2.97;;
47167;SDS011;32931;47.778;17.806;2023-01-10T16:55:54;6.90;;;3.00;;
47167;SDS011;32931;47.778;17.806;2023-01-10T16:58:20;6.20;;;3.10;;
47167;SDS011;32931;47.778;17.806;2023-01-10T17:00:47;7.45;;;3.40;;
47167;SDS011;32931;47.778;17.806;2023-01-10T17:03:20;6.78;;;3.25;;
47167;SDS011;32931;47.778;17.806;2023-01-10T17:05:48;8.77;;;3.80;;
47167;SDS011;32931;47.778;17.806;2023-01-10T17:08:19;6.50;;;3.30;;
47167;SDS011;32931;47.778;17.806;2023-01-10T17:10:48;5.15;;;3.50;;
47167;SDS011;32931;47.778;17.806;2023-01-10T17:13:27;6.32;;;3.50;;
47167;SDS011;32931;47.778;17.806;2023-01-10T17:15:57;4.25;;;2.90;;
47167;SDS011;32931;47.778;17.806;2023-01-10T17:18:24;5.82;;;3.60;;
47167;SDS011;32931;47.778;17.806;2023-01-10T17:20:56;7.30;;;3.17;;
47167;SDS011;32931;47.778;17.806;2023-01-10T17:23:23;7.20;;;3.25;;
47167;SDS011;32931;47.778;17.806;2023-01-10T17:25:56;8.40;;;3.67;;
47167;SDS011;32931;47.778;17.806;2023-01-10T17:28:27;8.18;;;3.30;;
47167;SDS011;32931;47.778;17.806;2023-01-10T17:30:54;9.50;;;3.40;;
47167;SDS011;32931;47.778;17.806;2023-01-10T17:33:20;6.97;;;3.10;;